CheckWX is a tool to help pilots better visualize weather data.  It is not intended as a substitute for an official pre-flight weather briefing.

12:13:00 UTC

KHPN TAF
Westchester County Airport
White Plains, New York, USA
KHPN 261131Z 2612/2712 28010KT P6SM FEW025 FM261600 28012G16KT P6SM SCT050 FM262300 26009KT P6SM SCT120 SCT250 AMD NOT SKED

Jan-26@
12:00 UTC

Jan-26 @ 12:00 UTC

Jan-26@
16:00 UTC

Jan-26 @ 16:00 UTC

KHPN 261131Z 2612/2712 28010KT P6SM FEW025
Wind
  • 280° at 10 KTS
Cloud Levels
  • Few at 2,500' AGL

Jan-26@
16:00 UTC

Jan-26 @ 16:00 UTC

Jan-26@
23:00 UTC

Jan-26 @ 23:00 UTC

FM261600 28012G16KT P6SM SCT050

From

From Standard forecast or significant change

Wind
  • 280° at 12 KTS
  • {Gusting to 16 KTS
Cloud Levels
  • Scattered at 5,000' AGL

Jan-26@
23:00 UTC

Jan-26 @ 23:00 UTC

Jan-27@
12:00 UTC

Jan-27 @ 12:00 UTC

FM262300 26009KT P6SM SCT120 SCT250 AMD NOT SKED

From

From Standard forecast or significant change

Wind
  • 260° at 9 KTS
Cloud Levels
  • Scattered at 12,000' AGL
  • Scattered at 25,000' AGL